createdAt,value
2022-09-30T00:05:06.868Z,10.93
2022-09-30T00:15:11.876Z,10.73
2022-09-30T00:25:16.065Z,10.72
2022-09-30T00:35:22.626Z,10.72
2022-09-30T00:45:27.799Z,10.57
2022-09-30T00:55:45.759Z,10.58
2022-09-30T01:05:48.438Z,10.68
2022-09-30T01:16:12.801Z,10.70
2022-09-30T01:26:37.024Z,10.56
2022-09-30T01:36:54.914Z,10.34
2022-09-30T01:47:02.905Z,10.26
2022-09-30T01:57:12.144Z,10.08
2022-09-30T02:07:21.909Z,10.00
2022-09-30T02:17:30.519Z,9.82
2022-09-30T02:27:42.186Z,9.86
2022-09-30T02:37:50.365Z,9.97
2022-09-30T02:48:06.498Z,9.94
2022-09-30T02:58:14.501Z,9.93
2022-09-30T03:08:17.803Z,9.71
2022-09-30T03:18:38.256Z,9.53
2022-09-30T03:28:50.424Z,9.06
2022-09-30T03:39:03.513Z,9.07
2022-09-30T03:49:10.680Z,8.95
2022-09-30T03:59:25.539Z,8.79
2022-09-30T04:09:28.630Z,8.71
2022-09-30T04:30:45.824Z,8.62
2022-09-30T04:40:49.461Z,8.58
2022-09-30T04:50:53.939Z,8.51
2022-09-30T05:01:02.165Z,8.44
2022-09-30T05:11:09.395Z,8.30
2022-09-30T05:21:12.861Z,8.17
2022-09-30T05:31:16.857Z,8.17
2022-09-30T05:41:20.298Z,8.24
2022-09-30T05:51:24.467Z,8.23
2022-09-30T06:01:27.775Z,8.23
2022-09-30T06:11:32.104Z,8.33
2022-09-30T06:21:34.727Z,8.42
2022-09-30T06:31:38.810Z,8.50
2022-09-30T06:41:42.614Z,8.79
2022-09-30T06:51:46.661Z,9.05
2022-09-30T07:01:49.386Z,9.46
2022-09-30T07:11:53.714Z,9.77
2022-09-30T07:21:56.387Z,10.15
2022-09-30T07:32:00.668Z,10.27
2022-09-30T07:42:04.094Z,10.79
2022-09-30T07:52:08.912Z,11.18
2022-09-30T08:02:15.905Z,11.52
2022-09-30T08:12:19.960Z,11.94
2022-09-30T08:22:23.822Z,12.35
2022-09-30T08:32:30.783Z,12.84
2022-09-30T08:42:54.239Z,13.22
2022-09-30T08:53:04.787Z,13.50
2022-09-30T09:03:07.517Z,13.86
2022-09-30T09:13:20.328Z,14.24
2022-09-30T09:23:23.620Z,14.54
2022-09-30T09:33:31.020Z,14.98
2022-09-30T09:43:46.101Z,15.40
2022-09-30T09:53:52.229Z,15.36
2022-09-30T10:04:09.683Z,15.43
2022-09-30T10:14:18.626Z,15.78
2022-09-30T10:24:29.423Z,15.86
2022-09-30T10:34:35.569Z,16.41
2022-09-30T10:44:43.858Z,16.26
2022-09-30T10:54:53.740Z,17.15
2022-09-30T11:05:03.744Z,17.37
2022-09-30T11:15:17.077Z,25.20
2022-09-30T11:25:27.095Z,30.56
2022-09-30T11:35:44.940Z,32.98
2022-09-30T11:46:06.945Z,23.54
2022-09-30T11:56:46.940Z,28.56
2022-09-30T12:06:55.563Z,24.09
2022-09-30T12:17:04.167Z,28.38
2022-09-30T12:27:16.646Z,27.79
2022-09-30T12:37:35.608Z,26.38
2022-09-30T12:47:46.004Z,25.76
2022-09-30T12:57:51.567Z,21.23
2022-09-30T13:08:11.210Z,19.67
2022-09-30T13:18:47.265Z,19.14
2022-09-30T13:28:51.917Z,17.95
2022-09-30T13:39:25.728Z,18.19
2022-09-30T13:49:40.783Z,18.35
2022-09-30T13:59:56.170Z,17.83
2022-09-30T14:10:13.836Z,18.21
2022-09-30T14:20:29.744Z,17.99
2022-09-30T14:30:40.371Z,18.34
2022-09-30T14:40:51.653Z,18.36
2022-09-30T14:50:58.423Z,18.11
2022-09-30T15:01:05.876Z,17.83
2022-09-30T15:11:10.017Z,17.43
2022-09-30T15:21:15.504Z,17.36
2022-09-30T15:31:24.846Z,17.03
2022-09-30T15:41:27.862Z,16.86
2022-09-30T15:51:37.995Z,16.67
2022-09-30T16:01:42.329Z,16.58
2022-09-30T16:11:53.856Z,16.47
2022-09-30T16:21:57.625Z,16.30
2022-09-30T16:32:02.066Z,16.01
2022-09-30T16:42:05.908Z,15.72
2022-09-30T16:52:10.307Z,15.61
2022-09-30T17:02:16.308Z,15.32
2022-09-30T17:12:20.287Z,15.10
2022-09-30T17:22:22.897Z,14.94
2022-09-30T17:32:26.937Z,14.77
2022-09-30T17:42:47.151Z,14.50
2022-09-30T17:52:51.356Z,14.24
2022-09-30T18:02:54.659Z,14.04
2022-09-30T18:12:59.648Z,13.99
2022-09-30T18:23:02.344Z,14.14
2022-09-30T18:33:07.343Z,13.93
2022-09-30T18:43:13.944Z,13.82
2022-09-30T18:53:18.905Z,13.89
2022-09-30T19:03:21.591Z,13.70
2022-09-30T19:13:27.318Z,13.77
2022-09-30T19:23:31.598Z,13.70
2022-09-30T19:33:41.407Z,13.76
2022-09-30T19:43:50.550Z,13.76
2022-09-30T19:54:05.447Z,13.68
2022-09-30T20:04:10.680Z,13.65
2022-09-30T20:14:32.194Z,13.64
2022-09-30T20:24:34.985Z,13.52
2022-09-30T20:34:39.100Z,13.49
2022-09-30T20:44:45.206Z,13.48
2022-09-30T20:54:49.585Z,13.56
2022-09-30T21:04:52.725Z,13.54
2022-09-30T21:14:57.138Z,13.56
2022-09-30T21:24:59.809Z,13.50
2022-09-30T21:35:05.297Z,13.64
2022-09-30T21:45:09.176Z,13.71
2022-09-30T21:55:13.679Z,13.79
2022-09-30T22:05:20.516Z,13.83
2022-09-30T22:15:24.951Z,13.91
2022-09-30T22:25:30.514Z,13.90
2022-09-30T22:35:52.100Z,14.03
2022-09-30T22:46:04.915Z,14.04
2022-09-30T22:56:09.156Z,14.06
2022-09-30T23:06:12.094Z,14.13
2022-09-30T23:16:17.862Z,14.11
2022-09-30T23:26:25.326Z,14.05
2022-09-30T23:36:32.093Z,14.13
2022-09-30T23:46:34.800Z,14.11
2022-09-30T23:56:38.859Z,14.24
